Terminal Aerodrome Forecast
Issued by NWS

Home | Current Version | Previous Version | Graphics & Text | Print | Product List | Glossary On
Versions: 1 2 3 4 5 6 7 8 9 10 11 12 13 14 15 16 17 18
174
FTUS43 KIWX 150520
TAFSBN
TAF
KSBN 150520Z 1506/1606 00000KT 6SM BR SCT150 BKN250
      TEMPO 1507/1511 5SM BR
     FM151500 18004KT P6SM BKN100=

USA.gov is the U.S. government's official web portal to all federal, state and local government web resources and services.